createdAt,value
2023-02-16T00:01:49.349Z,101279.91
2023-02-16T00:04:29.416Z,101273.13
2023-02-16T00:06:57.038Z,101275.66
2023-02-16T00:09:24.639Z,101276.75
2023-02-16T00:12:11.287Z,101267.13
2023-02-16T00:14:39.216Z,101269.88
2023-02-16T00:17:06.592Z,101270.72
2023-02-16T00:22:14.765Z,101273.22
2023-02-16T00:24:41.332Z,101266.28
2023-02-16T00:27:16.209Z,101263.28
2023-02-16T00:29:44.788Z,101262.19
2023-02-16T00:32:12.815Z,101261.81
2023-02-16T00:38:47.540Z,101261.66
2023-02-16T00:41:43.688Z,101249.84
2023-02-16T00:44:29.271Z,101251.44
2023-02-16T00:46:55.941Z,101247.06
2023-02-16T00:49:22.773Z,101253.38
2023-02-16T00:51:50.197Z,101248.00
2023-02-16T00:54:27.517Z,101242.53
2023-02-16T00:57:18.112Z,101245.81
2023-02-16T00:59:46.712Z,101243.25
2023-02-16T01:02:14.753Z,101236.13
2023-02-16T01:05:47.853Z,101237.75
2023-02-16T01:08:37.917Z,101237.69
2023-02-16T01:11:07.469Z,101234.75
2023-02-16T01:14:03.100Z,101237.34
2023-02-16T01:16:38.801Z,101235.00
2023-02-16T01:19:05.454Z,101226.56
2023-02-16T01:21:32.409Z,101228.28
2023-02-16T01:23:59.215Z,101228.00
2023-02-16T01:26:26.159Z,101226.56
2023-02-16T01:28:52.763Z,101219.63
2023-02-16T01:31:19.464Z,101228.91
2023-02-16T01:37:16.675Z,101222.50
2023-02-16T01:39:43.302Z,101207.88
2023-02-16T01:42:15.881Z,101216.75
2023-02-16T01:44:52.710Z,101216.19
2023-02-16T01:47:40.160Z,101213.37
2023-02-16T01:50:19.886Z,101204.94
2023-02-16T01:53:24.539Z,101198.47
2023-02-16T01:55:58.837Z,101202.44
2023-02-16T01:58:50.679Z,101197.78
2023-02-16T02:01:35.914Z,101201.31
2023-02-16T02:08:22.505Z,101198.50
2023-02-16T02:11:27.494Z,101201.19
2023-02-16T02:14:08.520Z,101184.12
2023-02-16T02:16:35.552Z,101189.09
2023-02-16T02:19:02.129Z,101178.09
2023-02-16T02:24:22.760Z,101168.13
2023-02-16T02:26:58.354Z,101177.00
2023-02-16T02:29:55.766Z,101176.34
2023-02-16T02:36:34.453Z,101173.16
2023-02-16T02:39:12.758Z,101172.59
2023-02-16T02:42:07.832Z,101176.69
2023-02-16T02:45:18.755Z,101175.84
2023-02-16T02:47:47.541Z,101170.44
2023-02-16T02:53:43.752Z,101167.81
2023-02-16T02:56:32.713Z,101175.66
2023-02-16T02:59:23.463Z,101166.03
2023-02-16T03:02:33.795Z,101165.22
2023-02-16T03:05:27.643Z,101168.47
2023-02-16T03:08:06.394Z,101177.56
2023-02-16T03:10:55.222Z,101177.66
2023-02-16T03:13:26.241Z,101162.53
2023-02-16T03:15:56.005Z,101168.56
2023-02-16T03:18:44.788Z,101171.59
2023-02-16T03:21:33.114Z,101164.22
2023-02-16T03:24:22.006Z,101163.56
2023-02-16T03:27:09.442Z,101168.81
2023-02-16T03:29:37.750Z,101165.28
2023-02-16T03:32:32.351Z,101164.16
2023-02-16T03:35:24.599Z,101161.88
2023-02-16T03:37:51.196Z,101159.66
2023-02-16T03:40:30.259Z,101154.78
2023-02-16T03:43:00.257Z,101154.06
2023-02-16T03:45:27.629Z,101159.28
2023-02-16T03:47:55.082Z,101160.88
2023-02-16T03:53:07.623Z,101164.56
2023-02-16T03:55:36.950Z,101161.69
2023-02-16T03:58:08.036Z,101153.22
2023-02-16T04:00:35.986Z,101145.84
2023-02-16T04:03:03.628Z,101138.59
2023-02-16T04:06:04.417Z,101146.75
2023-02-16T04:09:01.892Z,101151.03
2023-02-16T04:11:53.335Z,101153.53
2023-02-16T04:14:19.932Z,101145.13
2023-02-16T04:16:46.553Z,101144.41
2023-02-16T04:19:13.637Z,101149.78
2023-02-16T04:21:40.281Z,101146.41
2023-02-16T04:26:56.828Z,101150.84
2023-02-16T04:29:23.437Z,101148.16
2023-02-16T04:31:50.128Z,101143.72
2023-02-16T04:34:35.846Z,101147.56
2023-02-16T04:37:02.950Z,101150.19
2023-02-16T04:39:29.522Z,101149.56
2023-02-16T04:45:49.825Z,101158.75
2023-02-16T04:48:16.440Z,101157.94
2023-02-16T04:50:43.193Z,101149.41
2023-02-16T04:53:09.744Z,101157.31
2023-02-16T04:55:36.285Z,101158.94
2023-02-16T04:58:02.842Z,101160.13
2023-02-16T05:00:38.538Z,101153.13
2023-02-16T05:03:05.115Z,101159.72
2023-02-16T05:05:31.781Z,101155.91
2023-02-16T05:07:58.344Z,101153.38
2023-02-16T05:11:24.841Z,101148.81
2023-02-16T05:14:41.773Z,101142.06
2023-02-16T05:17:15.167Z,101145.41
2023-02-16T05:19:43.420Z,101146.56
2023-02-16T05:22:11.383Z,101149.94
2023-02-16T05:24:38.316Z,101155.53
2023-02-16T05:27:07.954Z,101154.00
2023-02-16T05:29:58.309Z,101154.94
2023-02-16T05:32:25.907Z,101150.25
2023-02-16T05:34:52.462Z,101145.34
2023-02-16T05:37:19.286Z,101144.72
2023-02-16T05:40:35.659Z,101143.50
2023-02-16T05:43:46.608Z,101143.06
2023-02-16T05:46:13.226Z,101138.53
2023-02-16T05:48:39.773Z,101144.72
2023-02-16T05:51:06.533Z,101140.41
2023-02-16T05:53:33.194Z,101140.41
2023-02-16T05:55:59.756Z,101153.28
2023-02-16T05:58:26.368Z,101146.97
2023-02-16T06:00:53.535Z,101151.16
2023-02-16T06:03:20.088Z,101151.25
2023-02-16T06:05:46.789Z,101150.22
2023-02-16T06:08:13.388Z,101147.81
2023-02-16T06:10:40.084Z,101144.56
2023-02-16T06:13:06.621Z,101135.50
2023-02-16T06:15:33.486Z,101142.91
2023-02-16T06:18:00.046Z,101151.41
2023-02-16T06:20:26.705Z,101143.91
2023-02-16T06:22:53.245Z,101146.41
2023-02-16T06:25:20.310Z,101150.69
2023-02-16T06:27:46.863Z,101154.00
2023-02-16T06:30:13.724Z,101152.81
2023-02-16T06:32:40.753Z,101156.69
2023-02-16T06:35:07.684Z,101143.59
2023-02-16T06:37:34.281Z,101148.16
2023-02-16T06:40:00.850Z,101144.72
2023-02-16T06:42:27.438Z,101148.59
2023-02-16T06:44:54.039Z,101146.97
2023-02-16T06:47:20.726Z,101142.72
2023-02-16T06:49:47.292Z,101144.25
2023-02-16T06:52:15.004Z,101139.66
2023-02-16T06:54:41.584Z,101137.47
2023-02-16T06:57:08.150Z,101134.66
2023-02-16T06:59:36.775Z,101133.03
2023-02-16T07:02:03.659Z,101136.69
2023-02-16T07:04:30.230Z,101133.84
2023-02-16T07:06:56.783Z,101132.22
2023-02-16T07:09:23.514Z,101132.66
2023-02-16T07:11:50.197Z,101127.56
2023-02-16T07:14:16.836Z,101123.06
2023-02-16T07:16:43.418Z,101123.06
2023-02-16T07:19:10.029Z,101123.72
2023-02-16T07:21:36.687Z,101127.19
2023-02-16T07:24:03.800Z,101133.56
2023-02-16T07:26:30.409Z,101132.13
2023-02-16T07:28:57.012Z,101130.66
2023-02-16T07:31:26.463Z,101134.47
2023-02-16T07:33:53.347Z,101135.50
2023-02-16T07:36:19.890Z,101141.78
2023-02-16T07:38:46.438Z,101137.16
2023-02-16T07:41:13.508Z,101137.31
2023-02-16T07:43:42.765Z,101133.62
2023-02-16T07:46:09.422Z,101135.59
2023-02-16T07:48:36.090Z,101130.84
2023-02-16T07:51:03.093Z,101129.44
2023-02-16T07:53:29.890Z,101123.06
2023-02-16T07:55:57.168Z,101127.22
2023-02-16T07:58:29.728Z,101117.50
2023-02-16T08:01:05.961Z,101132.34
2023-02-16T08:03:32.758Z,101129.50
2023-02-16T08:06:03.868Z,101139.22
2023-02-16T08:08:31.072Z,101136.66
2023-02-16T08:10:57.815Z,101138.16
2023-02-16T08:13:24.782Z,101137.97
2023-02-16T08:16:39.835Z,101137.03
2023-02-16T08:19:19.461Z,101146.25
2023-02-16T08:21:49.621Z,101147.69
2023-02-16T08:24:16.266Z,101142.50
2023-02-16T08:26:44.690Z,101150.47
2023-02-16T08:29:14.865Z,101145.13
2023-02-16T08:31:41.835Z,101143.06
2023-02-16T08:34:11.233Z,101143.66
2023-02-16T08:36:40.099Z,101146.38
2023-02-16T08:39:16.381Z,101152.19
2023-02-16T08:41:44.423Z,101152.03
2023-02-16T08:44:10.976Z,101149.03
2023-02-16T08:46:40.021Z,101157.00
2023-02-16T08:49:08.093Z,101151.66
2023-02-16T08:51:38.540Z,101155.37
2023-02-16T08:54:08.697Z,101151.22
2023-02-16T08:56:35.743Z,101160.53
2023-02-16T08:59:02.512Z,101162.25
2023-02-16T09:01:29.437Z,101164.94
2023-02-16T09:03:56.268Z,101153.72
2023-02-16T09:06:23.037Z,101156.84
2023-02-16T09:08:54.675Z,101151.84
2023-02-16T09:11:22.433Z,101151.66
2023-02-16T09:13:50.504Z,101146.66
2023-02-16T09:16:24.980Z,101152.47
2023-02-16T09:18:53.006Z,101141.44
2023-02-16T09:21:25.580Z,101149.97
2023-02-16T09:23:55.840Z,101147.66
2023-02-16T09:26:24.983Z,101148.09
2023-02-16T09:28:53.346Z,101145.72
2023-02-16T09:31:27.281Z,101150.28
2023-02-16T09:33:56.255Z,101149.22
2023-02-16T09:36:23.460Z,101139.72
2023-02-16T09:38:51.405Z,101144.41
2023-02-16T09:41:41.969Z,101146.88
2023-02-16T09:44:33.050Z,101152.28
2023-02-16T09:47:03.387Z,101148.75
2023-02-16T09:49:38.960Z,101146.34
2023-02-16T09:52:16.675Z,101147.12
2023-02-16T09:54:53.138Z,101146.94
2023-02-16T09:57:41.282Z,101143.34
2023-02-16T10:00:33.257Z,101140.91
2023-02-16T10:03:18.566Z,101134.16
2023-02-16T10:06:10.705Z,101140.50
2023-02-16T10:08:43.420Z,101143.72
2023-02-16T10:11:40.677Z,101141.34
2023-02-16T10:14:49.770Z,101136.31
2023-02-16T10:17:37.738Z,101142.06
2023-02-16T10:20:13.293Z,101134.28
2023-02-16T10:22:49.112Z,101132.19
2023-02-16T10:25:24.141Z,101134.47
2023-02-16T10:28:16.533Z,101136.13
2023-02-16T10:30:57.579Z,101125.13
2023-02-16T10:33:43.657Z,101131.22
2023-02-16T10:36:22.063Z,101130.00
2023-02-16T10:39:02.103Z,101126.41
2023-02-16T10:41:44.217Z,101124.87
2023-02-16T10:44:22.443Z,101119.53
2023-02-16T10:46:57.245Z,101120.88
2023-02-16T10:49:25.752Z,101120.81
2023-02-16T10:51:53.618Z,101114.59
2023-02-16T10:54:25.554Z,101104.50
2023-02-16T10:57:01.119Z,101106.44
2023-02-16T10:59:44.258Z,101100.09
2023-02-16T11:02:24.432Z,101096.22
2023-02-16T11:04:52.970Z,101101.00
2023-02-16T11:07:28.330Z,101092.53
2023-02-16T11:09:58.450Z,101095.50
2023-02-16T11:12:29.613Z,101103.44
2023-02-16T11:15:16.565Z,101094.59
2023-02-16T11:18:04.923Z,101093.84
2023-02-16T11:20:50.299Z,101085.13
2023-02-16T11:23:32.193Z,101090.00
2023-02-16T11:26:06.304Z,101081.84
2023-02-16T11:28:43.051Z,101081.84
2023-02-16T11:31:09.607Z,101062.19
2023-02-16T11:33:38.084Z,101067.19
2023-02-16T11:36:19.957Z,101058.88
2023-02-16T11:39:23.444Z,101054.13
2023-02-16T11:41:57.379Z,101060.31
2023-02-16T11:44:32.886Z,101060.31
2023-02-16T11:47:07.984Z,101055.13
2023-02-16T11:49:38.455Z,101054.66
2023-02-16T11:52:21.034Z,101050.50
2023-02-16T11:54:59.983Z,101050.09
2023-02-16T11:57:32.087Z,101045.19
2023-02-16T12:00:00.319Z,101046.00
2023-02-16T12:02:45.133Z,101033.94
2023-02-16T12:05:31.745Z,101027.94
2023-02-16T12:08:24.804Z,101025.91
2023-02-16T12:11:09.458Z,101016.84
2023-02-16T12:13:36.275Z,101010.72
2023-02-16T12:16:21.140Z,101007.38
2023-02-16T12:19:12.367Z,101011.03
2023-02-16T12:21:50.116Z,101007.06
2023-02-16T12:24:46.684Z,100998.00
2023-02-16T12:27:13.184Z,100994.53
2023-02-16T12:30:08.350Z,100988.59
2023-02-16T12:32:51.312Z,100979.91
2023-02-16T12:35:48.952Z,100980.84
2023-02-16T12:38:28.652Z,100978.63
2023-02-16T12:41:14.543Z,100984.16
2023-02-16T12:43:48.794Z,100978.56
2023-02-16T12:46:29.342Z,100968.84
2023-02-16T12:49:12.736Z,100971.66
2023-02-16T12:51:47.244Z,100966.19
2023-02-16T12:54:21.034Z,100958.44
2023-02-16T12:56:54.662Z,100955.37
2023-02-16T12:59:47.099Z,100955.53
2023-02-16T13:02:44.575Z,100941.06
2023-02-16T13:05:18.147Z,100946.25
2023-02-16T13:07:56.631Z,100946.78
2023-02-16T13:10:41.711Z,100932.09
2023-02-16T13:13:17.771Z,100936.59
2023-02-16T13:15:52.973Z,100933.41
2023-02-16T13:18:28.516Z,100926.16
2023-02-16T13:21:02.495Z,100927.78
2023-02-16T13:23:50.666Z,100918.47
2023-02-16T13:26:28.804Z,100910.66
2023-02-16T13:28:58.541Z,100915.28
2023-02-16T13:31:53.582Z,100905.88
2023-02-16T13:34:36.320Z,100904.28
2023-02-16T13:37:30.562Z,100908.03
2023-02-16T13:40:12.437Z,100900.81
2023-02-16T13:42:58.315Z,100896.59
2023-02-16T13:45:32.053Z,100894.69
2023-02-16T13:47:58.991Z,100891.13
2023-02-16T13:50:31.435Z,100886.50
2023-02-16T13:53:11.576Z,100889.59
2023-02-16T13:55:40.239Z,100891.84
2023-02-16T13:58:27.126Z,100888.22
2023-02-16T14:00:53.957Z,100894.66
2023-02-16T14:03:21.103Z,100888.63
2023-02-16T14:05:53.010Z,100890.09
2023-02-16T14:08:22.238Z,100892.59
2023-02-16T14:10:55.033Z,100876.41
2023-02-16T14:13:36.470Z,100884.87
2023-02-16T14:16:25.276Z,100884.25
2023-02-16T14:19:01.504Z,100873.34
2023-02-16T14:21:44.780Z,100876.06
2023-02-16T14:24:27.088Z,100887.75
2023-02-16T14:26:55.609Z,100887.16
2023-02-16T14:29:53.765Z,100884.16
2023-02-16T14:32:30.792Z,100879.00
2023-02-16T14:35:08.167Z,100882.00
2023-02-16T14:37:39.498Z,100876.75
2023-02-16T14:40:17.257Z,100882.94
2023-02-16T14:42:51.398Z,100878.94
2023-02-16T14:45:55.262Z,100879.31
2023-02-16T14:48:43.589Z,100872.84
2023-02-16T14:51:13.536Z,100872.78
2023-02-16T14:53:49.277Z,100870.41
2023-02-16T14:56:16.795Z,100875.41
2023-02-16T14:59:01.984Z,100880.06
2023-02-16T15:01:28.603Z,100870.06
2023-02-16T15:03:58.082Z,100869.78
2023-02-16T15:06:46.103Z,100871.75
2023-02-16T15:09:23.449Z,100876.97
2023-02-16T15:12:12.138Z,100873.12
2023-02-16T15:14:49.091Z,100877.34
2023-02-16T15:17:39.054Z,100878.41
2023-02-16T15:20:19.767Z,100880.84
2023-02-16T15:23:23.101Z,100871.91
2023-02-16T15:26:19.950Z,100871.75
2023-02-16T15:28:56.591Z,100875.06
2023-02-16T15:31:33.354Z,100869.09
2023-02-16T15:34:07.548Z,100866.94
2023-02-16T15:36:37.331Z,100866.63
2023-02-16T15:39:13.487Z,100865.81
2023-02-16T15:41:45.978Z,100873.72
2023-02-16T15:44:34.507Z,100872.66
2023-02-16T15:47:16.573Z,100867.50
2023-02-16T15:49:43.772Z,100872.09
2023-02-16T15:52:21.576Z,100869.50
2023-02-16T15:54:48.994Z,100871.72
2023-02-16T15:57:32.161Z,100873.75
2023-02-16T16:00:03.423Z,100873.94
2023-02-16T16:02:41.441Z,100871.22
2023-02-16T16:05:21.913Z,100865.69
2023-02-16T16:07:49.348Z,100867.75
2023-02-16T16:10:25.026Z,100863.53
2023-02-16T16:12:56.345Z,100870.75
2023-02-16T16:15:25.226Z,100865.91
2023-02-16T16:17:53.661Z,100864.81
2023-02-16T16:20:26.116Z,100860.00
2023-02-16T16:23:21.374Z,100865.47
2023-02-16T16:25:49.164Z,100861.00
2023-02-16T16:28:27.642Z,100859.19
2023-02-16T16:31:16.051Z,100866.53
2023-02-16T16:34:01.455Z,100863.66
2023-02-16T16:36:35.515Z,100870.25
2023-02-16T16:39:25.422Z,100875.78
2023-02-16T16:41:57.828Z,100861.50
2023-02-16T16:44:45.462Z,100866.84
2023-02-16T16:47:29.247Z,100864.25
2023-02-16T16:50:06.902Z,100875.41
2023-02-16T16:52:43.168Z,100878.84
2023-02-16T16:55:21.698Z,100882.81
2023-02-16T16:57:50.311Z,100878.38
2023-02-16T17:00:18.356Z,100879.78
2023-02-16T17:02:45.520Z,100878.28
2023-02-16T17:05:12.298Z,100876.75
2023-02-16T17:07:39.234Z,100881.84
2023-02-16T17:10:06.527Z,100865.91
2023-02-16T17:12:33.528Z,100867.69
2023-02-16T17:15:01.809Z,100869.16
2023-02-16T17:17:28.521Z,100871.81
2023-02-16T17:19:55.132Z,100867.09
2023-02-16T17:22:21.745Z,100873.25
2023-02-16T17:24:48.442Z,100871.31
2023-02-16T17:27:15.115Z,100876.66
2023-02-16T17:29:43.121Z,100862.03
2023-02-16T17:32:09.878Z,100864.16
2023-02-16T17:34:36.502Z,100861.06
2023-02-16T17:37:09.286Z,100862.38
2023-02-16T17:39:35.965Z,100862.59
2023-02-16T17:42:02.631Z,100858.00
2023-02-16T17:44:29.302Z,100858.06
2023-02-16T17:46:56.256Z,100853.87
2023-02-16T17:49:22.827Z,100856.50
2023-02-16T17:51:49.413Z,100851.69
2023-02-16T17:54:16.135Z,100854.94
2023-02-16T17:56:48.286Z,100846.91
2023-02-16T17:59:15.511Z,100849.25
2023-02-16T18:01:45.400Z,100859.44
2023-02-16T18:04:12.044Z,100861.78
2023-02-16T18:06:38.655Z,100856.25
2023-02-16T18:09:05.278Z,100852.84
2023-02-16T18:11:31.886Z,100858.91
2023-02-16T18:13:58.494Z,100866.81
2023-02-16T18:16:26.840Z,100868.84
2023-02-16T18:18:53.635Z,100861.31
2023-02-16T18:21:25.793Z,100866.22
2023-02-16T18:23:52.361Z,100871.28
2023-02-16T18:26:19.029Z,100873.06
2023-02-16T18:28:45.703Z,100874.66
2023-02-16T18:31:13.059Z,100870.81
2023-02-16T18:33:39.876Z,100883.50
2023-02-16T18:36:07.090Z,100875.41
2023-02-16T18:38:33.897Z,100876.81
2023-02-16T18:41:00.488Z,100879.25
2023-02-16T18:43:27.099Z,100885.56
2023-02-16T18:45:53.718Z,100879.28
2023-02-16T18:48:20.392Z,100882.44
2023-02-16T18:50:46.992Z,100877.97
2023-02-16T18:53:16.197Z,100883.06
2023-02-16T18:55:43.153Z,100879.69
2023-02-16T18:58:11.586Z,100891.78
2023-02-16T19:00:41.567Z,100894.28
2023-02-16T19:03:08.639Z,100888.88
2023-02-16T19:05:35.270Z,100889.09
2023-02-16T19:08:01.883Z,100881.78
2023-02-16T19:10:28.479Z,100884.28
2023-02-16T19:12:55.033Z,100874.34
2023-02-16T19:15:21.846Z,100889.97
2023-02-16T19:17:50.846Z,100884.56
2023-02-16T19:20:18.648Z,100878.13
2023-02-16T19:22:50.553Z,100879.47
2023-02-16T19:25:17.233Z,100884.66
2023-02-16T19:27:47.128Z,100881.13
2023-02-16T19:30:13.798Z,100880.53
2023-02-16T19:32:41.180Z,100875.03
2023-02-16T19:35:11.191Z,100876.69
2023-02-16T19:37:37.868Z,100870.13
2023-02-16T19:40:08.727Z,100865.84
2023-02-16T19:42:35.763Z,100865.97
2023-02-16T19:45:02.474Z,100876.16
2023-02-16T19:47:29.134Z,100876.50
2023-02-16T19:49:55.836Z,100872.28
2023-02-16T19:52:22.542Z,100881.28
2023-02-16T19:54:49.495Z,100876.22
2023-02-16T19:57:16.159Z,100883.91
2023-02-16T19:59:42.852Z,100878.97
2023-02-16T20:02:13.089Z,100873.00
2023-02-16T20:04:39.858Z,100879.91
2023-02-16T20:07:08.232Z,100882.00
2023-02-16T20:09:36.134Z,100875.00
2023-02-16T20:12:03.440Z,100882.41
2023-02-16T20:14:30.004Z,100882.06
2023-02-16T20:16:56.632Z,100886.72
2023-02-16T20:19:24.382Z,100883.22
2023-02-16T20:21:50.986Z,100883.38
2023-02-16T20:24:18.088Z,100873.97
2023-02-16T20:26:49.003Z,100880.84
2023-02-16T20:29:18.628Z,100880.34
2023-02-16T20:31:59.954Z,100881.78
2023-02-16T20:34:27.549Z,100884.19
2023-02-16T20:37:00.237Z,100883.50
2023-02-16T20:39:26.849Z,100879.62
2023-02-16T20:41:53.556Z,100888.88
2023-02-16T20:44:20.300Z,100877.59
2023-02-16T20:46:46.888Z,100877.16
2023-02-16T20:49:13.683Z,100877.66
2023-02-16T20:51:41.338Z,100886.84
2023-02-16T20:54:14.245Z,100885.19
2023-02-16T20:56:40.840Z,100885.78
2023-02-16T20:59:09.958Z,100881.78
2023-02-16T21:01:49.517Z,100879.53
2023-02-16T21:04:18.815Z,100877.87
2023-02-16T21:06:45.406Z,100877.03
2023-02-16T21:09:12.411Z,100869.75
2023-02-16T21:11:40.049Z,100863.38
2023-02-16T21:14:08.512Z,100867.16
2023-02-16T21:16:35.372Z,100858.38
2023-02-16T21:19:04.090Z,100859.25
2023-02-16T21:21:32.086Z,100854.34
2023-02-16T21:23:58.896Z,100860.13
2023-02-16T21:26:25.721Z,100855.41
2023-02-16T21:28:53.225Z,100867.00
2023-02-16T21:31:22.430Z,100860.47
2023-02-16T21:33:49.867Z,100864.53
2023-02-16T21:36:23.413Z,100867.66
2023-02-16T21:38:49.994Z,100860.66
2023-02-16T21:41:25.498Z,100857.56
2023-02-16T21:44:04.604Z,100856.91
2023-02-16T21:46:39.854Z,100860.13
2023-02-16T21:49:17.512Z,100867.50
2023-02-16T21:51:45.127Z,100857.41
2023-02-16T21:54:15.328Z,100859.16
2023-02-16T21:56:44.593Z,100858.69
2023-02-16T21:59:29.266Z,100861.34
2023-02-16T22:04:48.993Z,100863.28
2023-02-16T22:07:15.551Z,100857.94
2023-02-16T22:09:42.576Z,100857.81
2023-02-16T22:12:09.213Z,100860.37
2023-02-16T22:14:36.179Z,100856.91
2023-02-16T22:17:04.297Z,100855.09
2023-02-16T22:19:30.853Z,100860.44
2023-02-16T22:21:57.761Z,100851.16
2023-02-16T22:24:24.364Z,100850.22
2023-02-16T22:26:51.545Z,100855.38
2023-02-16T22:29:46.384Z,100847.13
2023-02-16T22:32:37.066Z,100845.75
2023-02-16T22:35:12.920Z,100846.09
2023-02-16T22:37:39.504Z,100842.66
2023-02-16T22:40:06.689Z,100836.25
2023-02-16T22:42:33.340Z,100833.41
2023-02-16T22:44:59.916Z,100837.31
2023-02-16T22:47:26.467Z,100825.75
2023-02-16T22:50:08.521Z,100829.22
2023-02-16T22:52:37.174Z,100831.38
2023-02-16T22:55:05.672Z,100823.50
2023-02-16T22:57:36.875Z,100818.75
2023-02-16T23:00:25.009Z,100820.63
2023-02-16T23:03:12.974Z,100819.84
2023-02-16T23:05:41.395Z,100824.81
2023-02-16T23:08:09.407Z,100824.75
2023-02-16T23:10:37.797Z,100822.12
2023-02-16T23:13:06.429Z,100830.94
2023-02-16T23:15:34.917Z,100824.50
2023-02-16T23:18:10.713Z,100819.66
2023-02-16T23:20:37.394Z,100813.56
2023-02-16T23:23:05.529Z,100819.94
2023-02-16T23:25:35.183Z,100822.56
2023-02-16T23:28:11.638Z,100814.25
2023-02-16T23:30:43.629Z,100819.41
2023-02-16T23:33:28.574Z,100812.16
2023-02-16T23:35:55.851Z,100808.56
2023-02-16T23:38:22.817Z,100809.09
2023-02-16T23:40:56.732Z,100802.28
2023-02-16T23:43:23.670Z,100809.34
2023-02-16T23:45:50.264Z,100811.28
2023-02-16T23:48:23.362Z,100819.03
2023-02-16T23:50:50.746Z,100824.97
2023-02-16T23:53:18.362Z,100819.94
2023-02-16T23:55:45.156Z,100818.97
